createdAt,value
2018-10-09T00:00:34.542Z,29.83
2018-10-09T00:03:05.508Z,29.37
2018-10-09T00:05:36.228Z,28.30
2018-10-09T00:08:06.747Z,30.17
2018-10-09T00:10:37.791Z,32.70
2018-10-09T00:13:08.605Z,31.10
2018-10-09T00:15:39.373Z,32.50
2018-10-09T00:18:10.470Z,31.97
2018-10-09T00:20:41.334Z,29.20
2018-10-09T00:23:12.086Z,30.60
2018-10-09T00:25:42.807Z,29.10
2018-10-09T00:28:13.651Z,30.23
2018-10-09T00:30:44.235Z,30.43
2018-10-09T00:33:14.921Z,31.30
2018-10-09T00:35:45.615Z,31.63
2018-10-09T00:38:16.491Z,31.67
2018-10-09T00:40:47.196Z,32.40
2018-10-09T00:43:17.851Z,32.37
2018-10-09T00:45:48.511Z,32.60
2018-10-09T00:48:19.003Z,30.20
2018-10-09T00:50:49.831Z,28.70
2018-10-09T00:53:20.555Z,27.67
2018-10-09T00:55:51.271Z,29.23
2018-10-09T00:58:21.927Z,29.57
2018-10-09T01:00:52.707Z,29.17
2018-10-09T01:03:23.834Z,29.87
2018-10-09T01:05:54.855Z,29.90
2018-10-09T01:08:25.431Z,30.30
2018-10-09T01:10:56.202Z,30.23
2018-10-09T01:13:27.143Z,29.77
2018-10-09T01:15:57.979Z,29.90
2018-10-09T01:18:28.821Z,31.13
2018-10-09T01:20:59.642Z,31.50
2018-10-09T01:23:30.858Z,30.40
2018-10-09T01:26:01.476Z,30.70
2018-10-09T01:28:32.371Z,30.90
2018-10-09T01:31:03.199Z,31.27
2018-10-09T01:33:34.151Z,30.27
2018-10-09T01:36:04.874Z,30.10
2018-10-09T01:38:35.714Z,30.07
2018-10-09T01:41:06.987Z,30.47
2018-10-09T01:43:37.917Z,31.37
2018-10-09T01:46:08.770Z,32.47
2018-10-09T01:48:40.028Z,30.07
2018-10-09T01:51:11.082Z,30.43
2018-10-09T01:53:42.623Z,30.90
2018-10-09T01:56:13.635Z,30.70
2018-10-09T01:58:45.210Z,30.20
2018-10-09T02:01:16.271Z,31.70
2018-10-09T02:06:27.920Z,31.40
2018-10-09T02:08:58.743Z,32.30
2018-10-09T02:11:29.377Z,28.50
2018-10-09T02:13:59.931Z,30.47
2018-10-09T02:16:30.547Z,27.20
2018-10-09T02:19:01.200Z,28.70
2018-10-09T02:21:31.894Z,30.73
2018-10-09T02:24:02.802Z,31.97
2018-10-09T02:26:33.595Z,30.57
2018-10-09T02:29:04.621Z,31.27
2018-10-09T02:31:35.413Z,31.73
2018-10-09T02:34:06.367Z,30.77
2018-10-09T02:36:38.007Z,30.07
2018-10-09T02:39:11.603Z,31.27
2018-10-09T02:41:42.339Z,30.67
2018-10-09T02:44:13.418Z,31.50
2018-10-09T02:46:44.666Z,32.00
2018-10-09T02:49:15.608Z,30.90
2018-10-09T02:51:47.046Z,30.37
2018-10-09T02:54:19.013Z,30.67
2018-10-09T02:56:50.527Z,32.13
2018-10-09T02:59:21.347Z,31.40
2018-10-09T03:01:52.508Z,31.00
2018-10-09T03:04:25.195Z,31.33
2018-10-09T03:06:56.263Z,30.97
2018-10-09T03:09:27.287Z,32.33
2018-10-09T03:11:57.607Z,31.77
2018-10-09T03:14:28.246Z,30.97
2018-10-09T03:16:58.880Z,31.83
2018-10-09T03:19:29.533Z,31.00
2018-10-09T03:22:01.208Z,36.73
2018-10-09T03:24:31.891Z,33.67
2018-10-09T03:27:02.857Z,32.10
2018-10-09T03:29:33.463Z,31.63
2018-10-09T03:32:04.227Z,30.37
2018-10-09T03:34:35.357Z,28.67
2018-10-09T03:37:06.710Z,30.33
2018-10-09T03:39:37.488Z,32.00
2018-10-09T03:42:08.283Z,30.17
2018-10-09T03:44:38.779Z,31.23
2018-10-09T03:47:09.651Z,30.87
2018-10-09T03:49:40.780Z,31.50
2018-10-09T03:52:11.579Z,30.53
2018-10-09T03:54:42.720Z,32.50
2018-10-09T03:57:13.646Z,32.23
2018-10-09T03:59:44.605Z,30.57
2018-10-09T04:02:15.669Z,30.57
2018-10-09T04:04:46.395Z,29.87
2018-10-09T04:07:17.279Z,32.70
2018-10-09T04:09:47.993Z,32.20
2018-10-09T04:12:20.100Z,30.87
2018-10-09T04:14:51.491Z,32.90
2018-10-09T04:17:22.124Z,30.47
2018-10-09T04:19:52.851Z,31.83
2018-10-09T04:22:23.996Z,33.40
2018-10-09T04:24:54.910Z,31.43
2018-10-09T04:27:26.303Z,29.97
2018-10-09T04:29:56.878Z,29.80
2018-10-09T04:32:28.364Z,32.13
2018-10-09T04:34:59.388Z,31.47
2018-10-09T04:37:30.231Z,32.73
2018-10-09T04:40:00.988Z,31.20
2018-10-09T04:42:31.966Z,30.10
2018-10-09T04:45:03.864Z,32.97
2018-10-09T04:47:34.887Z,32.80
2018-10-09T04:50:07.395Z,32.70
2018-10-09T04:52:38.198Z,30.40
2018-10-09T04:55:09.344Z,31.20
2018-10-09T04:57:40.390Z,31.23
2018-10-09T05:00:11.237Z,35.63
2018-10-09T05:02:42.867Z,34.97
2018-10-09T05:05:13.623Z,32.30
2018-10-09T05:07:44.239Z,34.60
2018-10-09T05:10:15.599Z,35.60
2018-10-09T05:12:46.552Z,34.77
2018-10-09T05:15:17.375Z,33.23
2018-10-09T05:17:49.634Z,38.60
2018-10-09T05:20:20.587Z,39.27
2018-10-09T05:22:50.994Z,45.57
2018-10-09T05:25:21.791Z,44.27
2018-10-09T05:27:52.442Z,43.40
2018-10-09T05:30:23.056Z,42.00
2018-10-09T05:32:53.646Z,41.60
2018-10-09T05:35:24.575Z,41.97
2018-10-09T05:37:55.262Z,43.43
2018-10-09T05:40:26.239Z,42.50
2018-10-09T05:42:56.803Z,46.13
2018-10-09T05:45:27.512Z,38.03
2018-10-09T05:47:58.132Z,40.30
2018-10-09T05:50:28.960Z,40.20
2018-10-09T05:52:59.535Z,41.27
2018-10-09T05:55:30.308Z,41.70
2018-10-09T05:58:01.119Z,40.57
2018-10-09T06:00:32.170Z,46.07
2018-10-09T06:03:02.496Z,44.57
2018-10-09T06:05:33.058Z,50.80
2018-10-09T06:08:03.432Z,49.93
2018-10-09T06:10:34.201Z,40.97
2018-10-09T06:13:06.108Z,43.37
2018-10-09T06:15:37.175Z,41.83
2018-10-09T06:18:07.968Z,39.43
2018-10-09T06:20:38.880Z,39.47
2018-10-09T06:23:13.136Z,42.80
2018-10-09T06:25:44.623Z,40.87
2018-10-09T06:28:16.318Z,37.73
2018-10-09T06:30:47.980Z,38.43
2018-10-09T06:33:18.811Z,42.40
2018-10-09T06:35:50.353Z,44.83
2018-10-09T06:38:21.082Z,42.47
2018-10-09T06:40:51.747Z,43.67
2018-10-09T06:43:23.975Z,43.77
2018-10-09T06:45:54.579Z,42.10
2018-10-09T06:48:25.280Z,44.70
2018-10-09T06:50:56.376Z,43.13
2018-10-09T06:53:27.272Z,43.70
2018-10-09T06:55:58.031Z,41.90
2018-10-09T06:58:28.622Z,42.70
2018-10-09T07:00:59.232Z,43.00
2018-10-09T07:03:29.820Z,45.17
2018-10-09T07:06:00.775Z,42.23
2018-10-09T07:08:31.421Z,43.83
2018-10-09T07:11:02.072Z,42.23
2018-10-09T07:13:32.790Z,43.53
2018-10-09T07:16:03.756Z,43.17
2018-10-09T07:18:34.320Z,43.27
2018-10-09T07:21:04.996Z,44.00
2018-10-09T07:23:35.604Z,42.37
2018-10-09T07:26:06.495Z,44.07
2018-10-09T07:28:37.283Z,43.60
2018-10-09T07:31:07.927Z,41.80
2018-10-09T07:33:38.752Z,42.77
2018-10-09T07:36:09.388Z,42.07
2018-10-09T07:38:40.200Z,45.00
2018-10-09T07:41:11.218Z,41.13
2018-10-09T07:43:42.001Z,41.20
2018-10-09T07:46:12.778Z,42.47
2018-10-09T07:48:43.473Z,41.67
2018-10-09T07:51:14.204Z,40.60
2018-10-09T07:53:45.135Z,41.87
2018-10-09T07:56:15.784Z,40.13
2018-10-09T07:58:46.776Z,42.70
2018-10-09T08:01:20.031Z,41.37
2018-10-09T08:03:50.823Z,41.67
2018-10-09T08:06:21.551Z,40.97
2018-10-09T08:08:52.283Z,40.60
2018-10-09T08:11:22.934Z,41.20
2018-10-09T08:13:53.651Z,40.77
2018-10-09T08:16:24.568Z,41.30
2018-10-09T08:18:55.514Z,41.73
2018-10-09T08:21:26.479Z,41.57
2018-10-09T08:23:57.139Z,42.83
2018-10-09T08:26:28.167Z,43.10
2018-10-09T08:28:59.278Z,42.50
2018-10-09T08:31:30.084Z,41.90
2018-10-09T08:34:00.998Z,39.70
2018-10-09T08:36:32.574Z,39.07
2018-10-09T08:39:04.064Z,39.90
2018-10-09T08:41:36.446Z,41.60
2018-10-09T08:44:08.088Z,41.70
2018-10-09T08:46:38.802Z,40.33
2018-10-09T08:49:10.225Z,39.40
2018-10-09T08:51:41.112Z,39.33
2018-10-09T08:54:12.098Z,38.77
2018-10-09T08:56:42.871Z,39.90
2018-10-09T08:59:13.190Z,40.47
2018-10-09T09:01:43.766Z,40.20
2018-10-09T09:04:14.479Z,40.73
2018-10-09T09:06:46.235Z,42.70
2018-10-09T09:09:16.852Z,45.20
2018-10-09T09:11:47.671Z,40.57
2018-10-09T09:14:18.656Z,40.33
2018-10-09T09:16:49.346Z,43.30
2018-10-09T09:19:19.987Z,40.90
2018-10-09T09:21:50.819Z,42.13
2018-10-09T09:24:21.687Z,39.40
2018-10-09T09:26:52.249Z,38.80
2018-10-09T09:29:23.340Z,37.50
2018-10-09T09:31:54.459Z,38.63
2018-10-09T09:34:26.830Z,37.80
2018-10-09T09:36:57.422Z,40.03
2018-10-09T09:39:28.217Z,38.40
2018-10-09T09:41:59.058Z,36.77
2018-10-09T09:44:29.900Z,36.80
2018-10-09T09:47:00.528Z,38.17
2018-10-09T09:49:31.007Z,35.90
2018-10-09T09:52:01.611Z,38.53
2018-10-09T09:54:32.374Z,36.67
2018-10-09T09:57:03.236Z,34.37
2018-10-09T09:59:33.873Z,35.50
2018-10-09T10:02:04.858Z,34.77
2018-10-09T10:04:35.615Z,34.30
2018-10-09T10:07:06.832Z,37.73
2018-10-09T10:09:37.739Z,35.60
2018-10-09T10:12:08.648Z,34.73
2018-10-09T10:14:39.603Z,35.60
2018-10-09T10:17:10.204Z,36.47
2018-10-09T10:19:40.922Z,34.07
2018-10-09T10:22:11.492Z,32.93
2018-10-09T10:24:42.452Z,35.33
2018-10-09T10:27:13.188Z,32.50
2018-10-09T10:29:43.879Z,32.40
2018-10-09T10:32:14.604Z,31.40
2018-10-09T10:34:44.951Z,31.40
2018-10-09T10:37:15.541Z,30.67
2018-10-09T10:39:46.437Z,27.93
2018-10-09T10:42:17.227Z,28.37
2018-10-09T10:44:48.105Z,28.73
2018-10-09T10:47:19.254Z,26.57
2018-10-09T10:49:50.280Z,24.00
2018-10-09T10:52:22.758Z,22.70
2018-10-09T10:54:56.950Z,22.10
2018-10-09T10:57:29.340Z,22.20
2018-10-09T11:00:07.659Z,24.17
2018-10-09T11:02:40.944Z,25.43
2018-10-09T11:05:11.627Z,23.27
2018-10-09T11:07:42.334Z,20.60
2018-10-09T11:10:13.356Z,21.90
2018-10-09T11:12:45.883Z,28.30
2018-10-09T11:15:16.960Z,28.65
2018-10-09T11:17:47.752Z,28.87
2018-10-09T11:20:23.406Z,25.53
2018-10-09T11:22:54.482Z,27.93
2018-10-09T11:25:29.229Z,24.97
2018-10-09T11:28:02.096Z,22.73
2018-10-09T11:30:35.668Z,20.77
2018-10-09T11:33:08.096Z,21.37
2018-10-09T11:35:40.580Z,21.67
2018-10-09T11:38:14.545Z,22.90
2018-10-09T11:40:45.408Z,21.67
2018-10-09T11:43:16.023Z,21.60
2018-10-09T11:45:46.956Z,21.70
2018-10-09T11:48:20.984Z,19.40
2018-10-09T11:50:51.700Z,20.77
2018-10-09T11:53:22.470Z,18.70
2018-10-09T11:55:53.074Z,19.70
2018-10-09T11:58:24.113Z,18.00
2018-10-09T12:00:57.188Z,18.63
2018-10-09T12:03:27.855Z,16.70
2018-10-09T12:05:58.945Z,17.47
2018-10-09T12:08:29.512Z,16.17
2018-10-09T12:11:00.939Z,16.20
2018-10-09T12:13:31.540Z,16.70
2018-10-09T12:16:02.423Z,16.67
2018-10-09T12:18:33.355Z,18.50
2018-10-09T12:21:03.995Z,16.47
2018-10-09T12:23:34.944Z,17.03
2018-10-09T12:26:06.727Z,18.40
2018-10-09T12:28:37.540Z,18.80
2018-10-09T12:31:08.817Z,18.83
2018-10-09T12:33:44.504Z,18.40
2018-10-09T12:36:17.153Z,17.03
2018-10-09T12:38:49.778Z,16.30
2018-10-09T12:41:20.685Z,16.10
2018-10-09T12:43:51.523Z,13.70
2018-10-09T12:46:22.385Z,13.70
2018-10-09T12:48:56.481Z,15.33
2018-10-09T12:51:27.067Z,14.33
2018-10-09T12:53:58.656Z,15.87
2018-10-09T12:56:29.448Z,15.83
2018-10-09T12:59:01.135Z,15.40
2018-10-09T13:01:31.984Z,15.13
2018-10-09T13:04:02.819Z,14.17
2018-10-09T13:06:33.703Z,15.23
2018-10-09T13:09:05.533Z,14.80
2018-10-09T13:11:36.361Z,13.73
2018-10-09T13:14:07.523Z,13.30
2018-10-09T13:16:38.091Z,13.50
2018-10-09T13:19:09.196Z,13.80
2018-10-09T13:21:40.698Z,14.23
2018-10-09T13:24:11.415Z,13.17
2018-10-09T13:26:42.018Z,14.37
2018-10-09T13:29:12.818Z,14.67
2018-10-09T13:31:43.728Z,13.73
2018-10-09T13:34:14.529Z,15.00
2018-10-09T13:36:45.836Z,14.50
2018-10-09T13:39:17.048Z,13.57
2018-10-09T13:41:56.008Z,14.00
2018-10-09T13:44:26.852Z,14.10
2018-10-09T13:46:57.778Z,13.87
2018-10-09T13:49:32.303Z,14.50
2018-10-09T13:52:03.269Z,13.57
2018-10-09T13:54:35.980Z,13.20
2018-10-09T13:57:07.038Z,13.10
2018-10-09T13:59:37.812Z,13.73
2018-10-09T14:02:09.363Z,13.83
2018-10-09T14:04:40.193Z,13.47
2018-10-09T14:07:11.006Z,13.47
2018-10-09T14:09:41.785Z,13.50
2018-10-09T14:12:15.611Z,13.23
2018-10-09T14:14:46.301Z,14.20
2018-10-09T14:17:17.116Z,12.67
2018-10-09T14:19:47.928Z,14.00
2018-10-09T14:22:18.891Z,14.80
2018-10-09T14:24:49.868Z,13.53
2018-10-09T14:27:20.677Z,12.60
2018-10-09T14:29:51.510Z,12.40
2018-10-09T14:32:22.278Z,12.20
2018-10-09T14:34:53.228Z,12.23
2018-10-09T14:37:24.275Z,12.33
2018-10-09T14:39:55.164Z,12.50
2018-10-09T14:42:25.815Z,12.80
2018-10-09T14:44:56.616Z,12.67
2018-10-09T14:47:27.367Z,13.17
2018-10-09T14:50:00.618Z,12.87
2018-10-09T14:52:40.596Z,12.13
2018-10-09T14:55:16.425Z,12.13
2018-10-09T14:57:47.685Z,12.70
2018-10-09T15:00:18.535Z,13.40
2018-10-09T15:02:49.580Z,12.90
2018-10-09T15:05:22.724Z,14.00
2018-10-09T15:07:53.424Z,13.90
2018-10-09T15:10:24.023Z,13.40
2018-10-09T15:12:54.966Z,14.53
2018-10-09T15:15:29.645Z,13.90
2018-10-09T15:18:00.402Z,14.57
2018-10-09T15:20:31.688Z,15.48
2018-10-09T15:23:02.302Z,14.70
2018-10-09T15:25:32.959Z,14.13
2018-10-09T15:28:09.796Z,14.57
2018-10-09T15:30:45.780Z,15.30
2018-10-09T15:33:17.912Z,14.30
2018-10-09T15:35:49.092Z,15.57
2018-10-09T15:38:19.803Z,14.60
2018-10-09T15:40:51.149Z,15.30
2018-10-09T15:43:26.140Z,16.03
2018-10-09T15:45:58.228Z,16.32
2018-10-09T15:48:29.154Z,16.53
2018-10-09T15:51:00.621Z,16.40
2018-10-09T15:53:31.384Z,16.50
2018-10-09T15:56:02.240Z,16.67
2018-10-09T15:58:32.835Z,16.60
2018-10-09T16:01:04.009Z,15.70
2018-10-09T16:03:34.856Z,17.30
2018-10-09T16:06:05.504Z,15.70
2018-10-09T16:08:38.777Z,16.63
2018-10-09T16:11:09.754Z,14.80
2018-10-09T16:13:40.442Z,15.90
2018-10-09T16:16:11.112Z,15.50
2018-10-09T16:18:41.683Z,15.90
2018-10-09T16:21:12.371Z,15.93
2018-10-09T16:23:43.083Z,16.07
2018-10-09T16:26:14.475Z,17.40
2018-10-09T16:28:45.506Z,18.37
2018-10-09T16:31:17.955Z,18.07
2018-10-09T16:33:49.230Z,19.20
2018-10-09T16:36:24.281Z,20.10
2018-10-09T16:38:57.205Z,20.93
2018-10-09T16:41:28.235Z,20.80
2018-10-09T16:43:58.605Z,21.90
2018-10-09T16:46:29.224Z,20.37
2018-10-09T16:48:59.787Z,20.60
2018-10-09T16:51:30.859Z,20.80
2018-10-09T16:54:01.437Z,23.60
2018-10-09T16:56:32.063Z,21.60
2018-10-09T16:59:02.736Z,22.17
2018-10-09T17:01:33.318Z,23.70
2018-10-09T17:04:05.428Z,21.20
2018-10-09T17:06:36.261Z,20.27
2018-10-09T17:09:13.341Z,20.73
2018-10-09T17:11:43.932Z,21.30
2018-10-09T17:14:14.959Z,21.33
2018-10-09T17:16:45.576Z,21.30
2018-10-09T17:19:16.780Z,22.20
2018-10-09T17:21:47.624Z,23.10
2018-10-09T17:24:18.348Z,22.10
2018-10-09T17:26:49.614Z,22.40
2018-10-09T17:29:20.752Z,22.23
2018-10-09T17:31:51.901Z,23.77
2018-10-09T17:34:23.245Z,22.83
2018-10-09T17:36:53.876Z,22.33
2018-10-09T17:39:24.682Z,23.27
2018-10-09T17:41:55.599Z,22.37
2018-10-09T17:44:26.567Z,23.17
2018-10-09T17:46:57.340Z,24.53
2018-10-09T17:49:28.550Z,25.67
2018-10-09T17:51:59.296Z,25.73
2018-10-09T17:57:10.438Z,25.90
2018-10-09T17:59:45.833Z,26.40
2018-10-09T18:02:16.833Z,25.07
2018-10-09T18:04:47.715Z,24.77
2018-10-09T18:07:18.737Z,25.20
2018-10-09T18:09:49.520Z,25.70
2018-10-09T18:12:20.171Z,24.40
2018-10-09T18:14:51.164Z,25.50
2018-10-09T18:17:21.968Z,24.70
2018-10-09T18:19:58.021Z,24.40
2018-10-09T18:22:28.780Z,25.87
2018-10-09T18:25:00.544Z,26.87
2018-10-09T18:27:31.272Z,24.60
2018-10-09T18:30:02.015Z,25.13
2018-10-09T18:32:34.492Z,26.00
2018-10-09T18:35:14.183Z,26.07
2018-10-09T18:37:45.596Z,27.07
2018-10-09T18:40:19.496Z,26.03
2018-10-09T18:42:50.744Z,27.40
2018-10-09T18:45:21.612Z,26.53
2018-10-09T18:47:57.639Z,26.03
2018-10-09T18:50:28.890Z,26.20
2018-10-09T18:53:02.231Z,27.40
2018-10-09T18:55:33.304Z,29.40
2018-10-09T18:58:04.027Z,28.00
2018-10-09T19:00:34.640Z,27.90
2018-10-09T19:03:05.360Z,27.97
2018-10-09T19:05:36.127Z,28.27
2018-10-09T19:08:10.299Z,35.10
2018-10-09T19:10:41.064Z,27.87
2018-10-09T19:13:12.226Z,27.43
2018-10-09T19:15:43.212Z,27.23
2018-10-09T19:18:17.231Z,30.77
2018-10-09T19:20:55.882Z,32.13
2018-10-09T19:23:29.159Z,33.33
2018-10-09T19:26:00.418Z,30.23
2018-10-09T19:28:31.119Z,31.00
2018-10-09T19:31:01.786Z,28.70
2018-10-09T19:33:32.599Z,28.73
2018-10-09T19:36:03.529Z,29.10
2018-10-09T19:38:34.516Z,30.23
2018-10-09T19:41:05.517Z,29.40
2018-10-09T19:43:38.011Z,30.03
2018-10-09T19:46:08.761Z,29.70
2018-10-09T19:48:39.511Z,28.90
2018-10-09T19:51:10.594Z,32.20
2018-10-09T19:53:41.265Z,31.30
2018-10-09T19:56:12.066Z,30.30
2018-10-09T19:58:42.928Z,28.67
2018-10-09T20:01:13.951Z,30.40
2018-10-09T20:03:45.176Z,32.83
2018-10-09T20:06:15.909Z,31.23
2018-10-09T20:08:46.663Z,29.23
2018-10-09T20:11:17.082Z,28.70
2018-10-09T20:13:47.815Z,31.40
2018-10-09T20:16:18.665Z,29.10
2018-10-09T20:18:49.374Z,28.80
2018-10-09T20:21:20.045Z,28.23
2018-10-09T20:23:50.692Z,29.57
2018-10-09T20:26:21.497Z,29.40
2018-10-09T20:28:52.270Z,28.93
2018-10-09T20:31:22.861Z,27.07
2018-10-09T20:33:53.597Z,28.10
2018-10-09T20:36:24.184Z,29.40
2018-10-09T20:38:55.341Z,27.00
2018-10-09T20:41:27.235Z,27.00
2018-10-09T20:43:59.657Z,25.07
2018-10-09T20:46:30.865Z,25.40
2018-10-09T20:49:02.281Z,26.93
2018-10-09T20:51:34.272Z,26.97
2018-10-09T20:54:08.665Z,25.00
2018-10-09T20:56:39.293Z,26.17
2018-10-09T20:59:10.642Z,26.67
2018-10-09T21:01:44.987Z,25.90
2018-10-09T21:04:15.899Z,26.50
2018-10-09T21:06:46.645Z,26.80
2018-10-09T21:09:17.888Z,25.77
2018-10-09T21:11:48.909Z,25.40
2018-10-09T21:14:20.069Z,25.07
2018-10-09T21:16:50.891Z,26.30
2018-10-09T21:19:21.615Z,26.30
2018-10-09T21:21:52.233Z,25.70
2018-10-09T21:24:23.007Z,27.50
2018-10-09T21:26:53.843Z,30.20
2018-10-09T21:29:24.542Z,27.33
2018-10-09T21:31:56.223Z,25.47
2018-10-09T21:34:26.817Z,27.30
2018-10-09T21:37:02.267Z,29.90
2018-10-09T21:39:33.400Z,30.77
2018-10-09T21:42:14.056Z,27.97
2018-10-09T21:44:47.565Z,26.57
2018-10-09T21:47:19.148Z,26.63
2018-10-09T21:49:50.206Z,28.70
2018-10-09T21:52:22.403Z,26.67
2018-10-09T21:54:53.092Z,27.97
2018-10-09T21:57:26.296Z,27.50
2018-10-09T21:59:57.319Z,26.40
2018-10-09T22:02:27.945Z,27.00
2018-10-09T22:04:58.692Z,27.67
2018-10-09T22:07:29.315Z,28.93
2018-10-09T22:10:00.148Z,28.63
2018-10-09T22:12:30.775Z,29.57
2018-10-09T22:15:01.400Z,28.20
2018-10-09T22:17:32.039Z,29.53
2018-10-09T22:20:02.673Z,28.40
2018-10-09T22:22:33.300Z,28.30
2018-10-09T22:25:03.892Z,29.67
2018-10-09T22:27:34.652Z,29.13
2018-10-09T22:30:06.044Z,30.03
2018-10-09T22:32:36.786Z,30.17
2018-10-09T22:35:07.571Z,29.50
2018-10-09T22:37:38.169Z,29.50
2018-10-09T22:40:08.824Z,30.77
2018-10-09T22:42:39.588Z,31.87
2018-10-09T22:45:10.309Z,32.33
2018-10-09T22:47:41.748Z,30.00
2018-10-09T22:50:12.512Z,29.80
2018-10-09T22:52:43.120Z,28.73
2018-10-09T22:55:13.784Z,30.87
2018-10-09T22:57:44.456Z,30.70
2018-10-09T23:00:15.354Z,29.50
2018-10-09T23:02:45.961Z,30.47
2018-10-09T23:05:16.843Z,30.77
2018-10-09T23:07:47.538Z,30.97
2018-10-09T23:10:17.960Z,33.70
2018-10-09T23:12:48.596Z,31.23
2018-10-09T23:15:19.520Z,30.00
2018-10-09T23:17:50.295Z,31.83
2018-10-09T23:20:21.004Z,32.30
2018-10-09T23:22:51.811Z,31.23
2018-10-09T23:25:24.007Z,31.33
2018-10-09T23:27:54.840Z,31.60
2018-10-09T23:30:25.533Z,31.87
2018-10-09T23:32:57.520Z,32.73
2018-10-09T23:35:29.974Z,33.40
2018-10-09T23:38:01.324Z,31.47
2018-10-09T23:40:32.361Z,32.23
2018-10-09T23:43:04.809Z,31.57
2018-10-09T23:45:35.771Z,32.53
2018-10-09T23:48:08.151Z,32.83
2018-10-09T23:50:41.663Z,33.80
2018-10-09T23:53:12.472Z,34.20
2018-10-09T23:55:43.223Z,34.03
2018-10-09T23:58:14.151Z,33.03
